Time;durP1;ratioP1;P1;durP2;ratioP2;P2;SDS_P1;SDS_P2;PMS_P1;PMS_P2;Temp;Humidity;BMP_temperature;BMP_pressure;BME280_temperature;BME280_humidity;BME280_pressure;Samples;Min_cycle;Max_cycle;Signal;HPM_P1;HPM_P2
2022/10/21 00:04:57;;;;;;;0.10;0.10;;;;;;;9.35;100.00;101141.28;10402171;28;20374;-76
2022/10/21 00:09:58;;;;;;;0.00;0.00;;;;;;;9.42;100.00;101124.59;10390197;28;20025;-76
2022/10/21 00:14:58;;;;;;;0.10;0.10;;;;;;;9.47;100.00;101114.38;10385579;28;20035;-77
2022/10/21 00:19:58;;;;;;;0.10;0.10;;;;;;;9.49;100.00;101116.91;10394227;28;20268;-76
2022/10/21 00:24:59;;;;;;;0.00;0.00;;;;;;;9.47;100.00;101100.25;10389753;28;20030;-76
2022/10/21 00:29:59;;;;;;;0.10;0.10;;;;;;;9.41;100.00;101103.50;10388622;28;20054;-76
2022/10/21 00:35:00;;;;;;;0.10;0.10;;;;;;;9.39;100.00;101090.31;10394098;28;20034;-76
2022/10/21 00:40:00;;;;;;;0.10;0.10;;;;;;;9.39;100.00;101087.66;10389824;28;20311;-76
2022/10/21 00:45:03;;;;;;;0.00;0.00;;;;;;;9.41;100.00;101077.72;10390659;28;20477;-76
2022/10/21 00:50:04;;;;;;;0.00;0.00;;;;;;;9.42;100.00;101082.06;10386821;28;20038;-76
2022/10/21 00:55:05;;;;;;;0.10;0.10;;;;;;;9.43;100.00;101078.44;10387997;28;20575;-77
2022/10/21 01:00:06;;;;;;;0.10;0.10;;;;;;;9.47;100.00;101071.81;10399293;28;20024;-76
2022/10/21 01:05:10;;;;;;;0.10;0.10;;;;;;;9.47;100.00;101047.06;10395686;28;20124;-76
2022/10/21 01:10:10;;;;;;;0.10;0.10;;;;;;;9.51;100.00;101043.97;10403729;28;20021;-76
2022/10/21 01:15:32;;;;;;;0.10;0.10;;;;;;;9.55;100.00;101033.03;10401327;28;20017;-76
2022/10/21 01:20:58;;;;;;;0.10;0.10;;;;;;;9.61;100.00;101019.16;10399037;28;20272;-76
2022/10/21 01:26:35;;;;;;;0.10;0.10;;;;;;;9.64;100.00;101022.34;10394710;28;20142;-76
2022/10/21 01:31:43;;;;;;;0.00;0.00;;;;;;;9.66;100.00;101011.59;10389499;28;20543;-76
2022/10/21 01:36:56;;;;;;;0.10;0.10;;;;;;;9.64;100.00;100998.41;10403035;28;20488;-75
2022/10/21 01:42:12;;;;;;;0.10;0.10;;;;;;;9.66;100.00;101006.25;10396912;28;20049;-76
2022/10/21 01:47:18;;;;;;;0.10;0.10;;;;;;;9.67;100.00;100995.44;10391559;28;20532;-75
2022/10/21 01:52:19;;;;;;;0.10;0.10;;;;;;;9.63;100.00;100979.94;10393175;28;20033;-75
2022/10/21 01:57:23;;;;;;;0.10;0.10;;;;;;;9.63;100.00;100977.28;10385610;28;20047;-76
2022/10/21 02:02:26;;;;;;;0.10;0.10;;;;;;;9.62;100.00;100980.94;10391932;28;20452;-76
2022/10/21 02:07:27;;;;;;;0.10;0.10;;;;;;;9.58;100.00;100968.94;10392469;28;20029;-76
2022/10/21 02:12:30;;;;;;;0.10;0.10;;;;;;;9.53;100.00;100959.56;10390537;28;20767;-75
2022/10/21 02:17:33;;;;;;;0.00;0.00;;;;;;;9.49;100.00;100949.38;10388111;28;20026;-75
2022/10/21 02:22:36;;;;;;;0.00;0.00;;;;;;;9.44;100.00;100935.69;10395976;28;20017;-76
2022/10/21 02:27:36;;;;;;;0.10;0.10;;;;;;;9.47;100.00;100943.38;10391478;28;20017;-76
2022/10/21 02:32:47;;;;;;;0.00;0.00;;;;;;;9.50;100.00;100941.25;10394055;28;20384;-76
2022/10/21 02:38:00;;;;;;;0.03;0.03;;;;;;;9.50;100.00;100949.22;10397993;28;20112;-75
2022/10/21 02:43:13;;;;;;;0.10;0.10;;;;;;;9.51;100.00;100931.44;10377633;28;20021;-75
2022/10/21 02:48:13;;;;;;;0.10;0.10;;;;;;;9.53;100.00;100940.09;10375502;28;20163;-76
2022/10/21 02:53:14;;;;;;;0.00;0.00;;;;;;;9.55;100.00;100945.28;10392395;28;20098;-76
2022/10/21 02:58:14;;;;;;;0.00;0.00;;;;;;;9.59;100.00;100944.00;10398160;28;20028;-76
2022/10/21 03:03:14;;;;;;;0.00;0.00;;;;;;;9.60;100.00;100941.19;10392333;28;20212;-76
2022/10/21 03:08:15;;;;;;;0.10;0.10;;;;;;;9.61;100.00;100936.72;10400559;28;20021;-75
2022/10/21 03:13:15;;;;;;;0.10;0.10;;;;;;;9.62;100.00;100943.69;10388930;28;20256;-76
2022/10/21 03:18:16;;;;;;;0.10;0.10;;;;;;;9.63;100.00;100937.38;10402456;28;20365;-76
2022/10/21 03:23:18;;;;;;;0.10;0.10;;;;;;;9.46;100.00;100923.09;10395749;28;20031;-75
2022/10/21 03:28:18;;;;;;;0.00;0.00;;;;;;;9.34;100.00;100919.81;10386453;28;20022;-76
2022/10/21 03:33:18;;;;;;;0.10;0.10;;;;;;;9.26;100.00;100906.41;10380432;28;20022;-75
2022/10/21 03:38:18;;;;;;;0.00;0.00;;;;;;;9.19;100.00;100894.69;10401141;28;20024;-75
2022/10/21 03:43:19;;;;;;;0.00;0.00;;;;;;;9.04;100.00;100895.19;10402867;28;20029;-76
2022/10/21 03:48:19;;;;;;;0.10;0.10;;;;;;;8.86;100.00;100894.31;10391140;28;20021;-76
2022/10/21 03:53:19;;;;;;;0.00;0.00;;;;;;;8.79;100.00;100886.09;10387489;28;20028;-76
2022/10/21 03:58:20;;;;;;;0.10;0.10;;;;;;;8.82;100.00;100892.94;10379216;28;20547;-75
2022/10/21 04:03:20;;;;;;;0.07;0.07;;;;;;;8.80;100.00;100885.09;10383128;28;20024;-76
2022/10/21 04:08:21;;;;;;;0.10;0.10;;;;;;;8.72;100.00;100889.47;10380567;28;20032;-75
2022/10/21 04:13:21;;;;;;;0.03;0.03;;;;;;;8.62;100.00;100876.22;10395275;28;20025;-76
2022/10/21 04:18:21;;;;;;;0.08;0.08;;;;;;;8.56;100.00;100874.16;10382216;28;20028;-76
2022/10/21 04:23:22;;;;;;;0.10;0.10;;;;;;;8.55;100.00;100869.81;10401865;28;20028;-75
2022/10/21 04:28:22;;;;;;;0.00;0.00;;;;;;;8.52;100.00;100873.63;10386971;28;20025;-75
2022/10/21 04:33:22;;;;;;;0.10;0.10;;;;;;;8.47;100.00;100872.38;10400671;28;20291;-76
2022/10/21 04:38:24;;;;;;;0.10;0.10;;;;;;;8.47;100.00;100875.84;10391271;28;20025;-75
2022/10/21 04:43:25;;;;;;;0.10;0.10;;;;;;;8.45;100.00;100864.53;10404409;28;20559;-75
2022/10/21 04:48:25;;;;;;;0.10;0.10;;;;;;;8.37;100.00;100861.72;10391629;28;20112;-75
2022/10/21 04:53:25;;;;;;;0.00;0.00;;;;;;;8.34;100.00;100873.47;10407184;22;20049;-74
2022/10/21 04:58:25;;;;;;;0.10;0.10;;;;;;;8.28;100.00;100859.94;10407680;28;20056;-74
2022/10/21 05:03:26;;;;;;;0.10;0.10;;;;;;;8.25;100.00;100857.56;10392650;28;20028;-74
2022/10/21 05:08:26;;;;;;;0.00;0.00;;;;;;;8.22;100.00;100844.59;10378712;28;20030;-74
2022/10/21 05:13:27;;;;;;;0.10;0.10;;;;;;;8.14;100.00;100840.84;10388228;28;20021;-74
2022/10/21 05:18:28;;;;;;;0.10;0.10;;;;;;;8.00;100.00;100827.19;10410904;28;20049;-74
2022/10/21 05:23:29;;;;;;;0.00;0.00;;;;;;;7.80;100.00;100819.28;10398318;28;20021;-74
2022/10/21 05:28:29;;;;;;;0.00;0.00;;;;;;;7.79;100.00;100814.91;10371980;28;20057;-74
2022/10/21 05:33:29;;;;;;;0.00;0.00;;;;;;;7.91;100.00;100820.91;10369110;28;20265;-74
2022/10/21 05:38:30;;;;;;;0.00;0.00;;;;;;;8.05;100.00;100827.59;10369586;28;20068;-74
2022/10/21 05:43:30;;;;;;;0.00;0.00;;;;;;;8.10;100.00;100838.63;10374179;28;20076;-74
2022/10/21 05:48:31;;;;;;;0.00;0.00;;;;;;;8.11;100.00;100830.50;10401235;28;20040;-74
2022/10/21 05:53:31;;;;;;;0.08;0.08;;;;;;;8.11;100.00;100825.19;10381712;28;21161;-73
2022/10/21 05:58:33;;;;;;;0.00;0.00;;;;;;;8.10;100.00;100823.53;10371055;28;20040;-73
2022/10/21 06:03:33;;;;;;;0.10;0.10;;;;;;;8.17;100.00;100831.75;10367985;28;20022;-74
2022/10/21 06:08:37;;;;;;;0.10;0.10;;;;;;;8.22;100.00;100820.72;10367322;28;20025;-74
2022/10/21 06:13:38;;;;;;;0.03;0.03;;;;;;;8.32;100.00;100824.16;10366355;28;20034;-74
2022/10/21 06:18:40;;;;;;;0.00;0.00;;;;;;;8.48;100.00;100805.84;10384184;28;20051;-74
2022/10/21 06:23:40;;;;;;;0.00;0.00;;;;;;;8.59;100.00;100808.31;10398084;28;20049;-74
2022/10/21 06:28:42;;;;;;;0.00;0.00;;;;;;;8.68;100.00;100800.47;10370506;28;20520;-74
2022/10/21 06:33:43;;;;;;;0.10;0.10;;;;;;;8.73;100.00;100782.28;10385424;28;20268;-73
2022/10/21 06:38:43;;;;;;;0.00;0.00;;;;;;;8.75;100.00;100806.84;10407787;28;20361;-74
2022/10/21 06:43:44;;;;;;;0.10;0.10;;;;;;;8.84;100.00;100814.78;10407274;28;20063;-74
2022/10/21 06:48:44;;;;;;;0.00;0.00;;;;;;;8.96;100.00;100810.09;10408125;28;20021;-74
2022/10/21 06:53:45;;;;;;;0.10;0.10;;;;;;;9.06;100.00;100825.97;10403800;28;20021;-74
2022/10/21 06:58:48;;;;;;;0.10;0.10;;;;;;;9.16;100.00;100826.75;10371145;28;20175;-74
2022/10/21 07:03:49;;;;;;;0.00;0.00;;;;;;;9.27;100.00;100825.69;10365226;28;20091;-74
2022/10/21 07:08:49;;;;;;;0.10;0.10;;;;;;;9.38;100.00;100829.97;10366750;28;20024;-74
2022/10/21 07:13:50;;;;;;;0.00;0.00;;;;;;;9.49;100.00;100843.84;10366361;28;20025;-75
2022/10/21 07:18:50;;;;;;;0.10;0.10;;;;;;;9.66;100.00;100844.84;10367021;28;20089;-74
2022/10/21 07:23:55;;;;;;;0.10;0.10;;;;;;;9.90;100.00;100846.03;10376496;28;20022;-74
2022/10/21 07:28:57;;;;;;;0.00;0.00;;;;;;;10.23;100.00;100841.78;10400626;28;20083;-74
2022/10/21 07:33:59;;;;;;;0.00;0.00;;;;;;;10.62;100.00;100846.72;10370645;28;21280;-74
2022/10/21 07:39:04;;;;;;;0.10;0.10;;;;;;;10.56;100.00;100855.31;10366334;28;20018;-74
2022/10/21 07:44:05;;;;;;;0.03;0.03;;;;;;;10.46;100.00;100854.59;10388936;28;20087;-73
2022/10/21 07:49:06;;;;;;;0.10;0.10;;;;;;;10.50;100.00;100842.63;10409832;28;20447;-74
2022/10/21 07:54:07;;;;;;;0.00;0.00;;;;;;;10.60;100.00;100846.03;10396821;28;20041;-75
2022/10/21 07:59:08;;;;;;;0.10;0.10;;;;;;;10.68;100.00;100845.25;10373674;28;20033;-74
2022/10/21 08:04:09;;;;;;;0.10;0.10;;;;;;;10.75;100.00;100854.25;10373138;28;20026;-74
2022/10/21 08:09:10;;;;;;;0.10;0.10;;;;;;;10.84;100.00;100858.63;10381348;28;20376;-75
2022/10/21 08:14:11;;;;;;;0.10;0.10;;;;;;;10.95;100.00;100844.19;10372210;28;20488;-73
2022/10/21 08:19:18;;;;;;;0.10;0.10;;;;;;;10.99;100.00;100853.50;10373161;28;20029;-74
2022/10/21 08:24:18;;;;;;;0.10;0.10;;;;;;;10.96;100.00;100865.31;10396641;28;20021;-75
2022/10/21 08:29:19;;;;;;;0.10;0.10;;;;;;;10.94;100.00;100869.16;10372276;28;20010;-75
2022/10/21 08:34:19;;;;;;;0.10;0.10;;;;;;;10.92;100.00;100879.16;10370892;28;20029;-75
2022/10/21 08:39:19;;;;;;;0.10;0.10;;;;;;;10.95;100.00;100870.84;10371465;28;20642;-75
2022/10/21 08:44:34;;;;;;;0.10;0.10;;;;;;;11.02;100.00;100853.19;10393710;28;20559;-75
2022/10/21 08:49:50;;;;;;;0.10;0.10;;;;;;;11.20;100.00;100843.28;10411346;28;20014;-75
2022/10/21 08:54:55;;;;;;;0.08;0.08;;;;;;;11.56;100.00;100829.66;10386665;28;20030;-75
2022/10/21 08:59:56;;;;;;;0.10;0.10;;;;;;;12.52;100.00;100834.25;10409109;28;20021;-72
2022/10/21 09:05:17;;;;;;;0.00;0.00;;;;;;;13.14;100.00;100828.13;10410566;28;20029;-74
2022/10/21 09:10:36;;;;;;;0.10;0.10;;;;;;;13.12;100.00;100822.97;10410977;28;20052;-75
2022/10/21 09:16:07;;;;;;;0.10;0.10;;;;;;;13.12;100.00;100822.97;10410190;28;20029;-75
2022/10/21 09:21:30;;;;;;;0.10;0.10;;;;;;;13.10;100.00;100814.28;10361126;28;20045;-72
2022/10/21 09:26:42;;;;;;;0.10;0.10;;;;;;;13.56;100.00;100809.00;10377436;28;20025;-74
2022/10/21 09:31:43;;;;;;;0.10;0.10;;;;;;;14.12;100.00;100815.88;10370595;28;20021;-74
2022/10/21 09:36:47;;;;;;;0.10;0.10;;;;;;;14.38;100.00;100807.41;10369298;28;20053;-74
2022/10/21 09:41:56;;;;;;;0.10;0.10;;;;;;;14.40;100.00;100800.84;10390236;28;20045;-75
2022/10/21 09:46:56;;;;;;;0.10;0.10;;;;;;;14.44;100.00;100802.13;10407407;28;20373;-75
2022/10/21 09:52:03;;;;;;;0.10;0.10;;;;;;;14.57;100.00;100814.09;10408785;28;20026;-75
2022/10/21 09:57:11;;;;;;;0.10;0.10;;;;;;;14.47;100.00;100817.03;10394065;28;20400;-74
2022/10/21 10:02:14;;;;;;;0.10;0.10;;;;;;;14.60;100.00;100811.03;10401365;28;20025;-75
2022/10/21 10:07:19;;;;;;;0.10;0.10;;;;;;;14.74;100.00;100812.88;10375070;28;20033;-75
2022/10/21 10:12:24;;;;;;;0.10;0.10;;;;;;;14.66;100.00;100802.22;10375576;28;20015;-75
2022/10/21 10:17:35;;;;;;;0.03;0.03;;;;;;;14.48;100.00;100814.13;10370112;28;20485;-74
2022/10/21 10:22:42;;;;;;;0.00;0.00;;;;;;;14.33;100.00;100812.47;10373029;28;20025;-75
2022/10/21 10:27:51;;;;;;;0.08;0.08;;;;;;;14.32;100.00;100822.38;10380267;28;20022;-75
2022/10/21 10:32:54;;;;;;;0.10;0.10;;;;;;;14.32;100.00;100817.00;10401508;28;20038;-75
2022/10/21 10:37:57;;;;;;;0.03;0.03;;;;;;;14.48;100.00;100819.50;10409104;28;20116;-75
2022/10/21 10:43:04;;;;;;;0.00;0.00;;;;;;;14.87;100.00;100796.94;10386836;28;20038;-75
2022/10/21 10:48:06;;;;;;;0.10;0.10;;;;;;;15.36;100.00;100800.81;10372668;28;20049;-74
2022/10/21 10:53:20;;;;;;;0.00;0.00;;;;;;;15.76;100.00;100793.94;10432562;22;20040;-75
2022/10/21 10:58:23;;;;;;;0.00;0.00;;;;;;;16.19;100.00;100798.41;10476251;28;20032;-75
2022/10/21 11:03:36;;;;;;;0.10;0.10;;;;;;;16.40;100.00;100786.75;10489799;28;20074;-76
2022/10/21 11:08:42;;;;;;;0.00;0.00;;;;;;;16.51;100.00;100792.38;10482191;28;20487;-76
2022/10/21 11:13:42;;;;;;;0.10;0.10;;;;;;;16.58;100.00;100789.75;10488269;28;20044;-76
2022/10/21 11:19:00;;;;;;;0.10;0.10;;;;;;;16.63;100.00;100779.22;10489659;28;20052;-76
2022/10/21 11:24:13;;;;;;;0.10;0.10;;;;;;;16.61;100.00;100781.28;10493190;28;20089;-76
2022/10/21 11:29:52;;;;;;;0.10;0.10;;;;;;;16.58;100.00;100779.00;10495019;28;20024;-76
2022/10/21 11:34:59;;;;;;;0.10;0.10;;;;;;;16.62;100.00;100772.19;10496114;28;20034;-76
2022/10/21 11:40:17;;;;;;;0.10;0.10;;;;;;;16.58;100.00;100772.78;10496649;28;20044;-76
2022/10/21 11:45:23;;;;;;;0.00;0.00;;;;;;;16.59;100.00;100761.00;10509391;28;20387;-76
2022/10/21 11:50:41;;;;;;;0.00;0.00;;;;;;;16.61;100.00;100758.94;10495950;28;20459;-75
2022/10/21 11:56:05;;;;;;;0.00;0.00;;;;;;;16.74;100.00;100762.50;10492832;28;20088;-75
2022/10/21 12:01:11;;;;;;;0.00;0.00;;;;;;;16.92;100.00;100758.47;10483784;28;20036;-76
2022/10/21 12:06:30;;;;;;;0.00;0.00;;;;;;;17.01;100.00;100749.16;10495675;28;20383;-75
2022/10/21 12:11:53;;;;;;;0.10;0.10;;;;;;;17.06;100.00;100743.19;10494305;28;20020;-75
2022/10/21 12:16:56;;;;;;;0.05;0.05;;;;;;;17.15;100.00;100744.66;10497053;28;20115;-77
2022/10/21 12:21:57;;;;;;;0.10;0.10;;;;;;;17.12;100.00;100750.44;10497207;28;20028;-77
2022/10/21 12:27:22;;;;;;;0.10;0.10;;;;;;;17.16;100.00;100755.22;10491107;28;20069;-77
2022/10/21 12:32:52;;;;;;;0.10;0.10;;;;;;;17.26;100.00;100737.84;10494030;28;20077;-77
2022/10/21 12:37:53;;;;;;;0.10;0.10;;;;;;;17.27;100.00;100750.25;10493235;28;20043;-77
2022/10/21 12:43:00;;;;;;;0.00;0.00;;;;;;;17.24;100.00;100753.34;10494528;28;20023;-77
2022/10/21 12:48:04;;;;;;;0.10;0.10;;;;;;;17.13;100.00;100754.78;10482013;28;20568;-77
2022/10/21 12:53:36;;;;;;;0.10;0.10;;;;;;;17.03;100.00;100748.97;10467914;28;20025;-77
2022/10/21 12:58:42;;;;;;;0.10;0.10;;;;;;;16.87;100.00;100748.31;10481847;28;20032;-77
2022/10/21 13:03:54;;;;;;;0.10;0.10;;;;;;;16.70;100.00;100744.28;10492598;28;20605;-76
2022/10/21 13:08:55;;;;;;;0.10;0.10;;;;;;;16.65;100.00;100746.75;10493137;28;20036;-77
2022/10/21 13:14:28;;;;;;;0.10;0.10;;;;;;;16.57;100.00;100749.63;10493260;28;20346;-77
2022/10/21 13:19:33;;;;;;;0.00;0.00;;;;;;;16.48;100.00;100749.78;10492445;28;20251;-77
2022/10/21 13:24:33;;;;;;;0.10;0.10;;;;;;;16.37;100.00;100749.50;10491733;28;20021;-77
2022/10/21 13:29:36;;;;;;;0.00;0.00;;;;;;;16.24;100.00;100753.78;10488449;28;20017;-76
2022/10/21 13:34:37;;;;;;;0.10;0.10;;;;;;;16.15;100.00;100754.16;10491751;28;20296;-76
2022/10/21 13:39:37;;;;;;;0.08;0.08;;;;;;;16.02;100.00;100753.03;10491344;28;20338;-76
2022/10/21 13:44:43;;;;;;;0.10;0.10;;;;;;;15.94;100.00;100755.03;10490016;28;20020;-75
2022/10/21 13:49:50;;;;;;;0.00;0.00;;;;;;;15.89;100.00;100760.19;10489655;28;20153;-75
2022/10/21 13:55:01;;;;;;;0.00;0.00;;;;;;;15.84;100.00;100763.44;10490563;28;20039;-75
2022/10/21 14:00:21;;;;;;;0.00;0.00;;;;;;;15.84;100.00;100771.50;10481327;28;20529;-75
2022/10/21 14:05:37;;;;;;;0.10;0.10;;;;;;;15.82;100.00;100769.03;10487603;28;20090;-75
2022/10/21 14:10:44;;;;;;;0.10;0.10;;;;;;;15.82;100.00;100765.47;10489180;28;20028;-75
2022/10/21 14:15:45;;;;;;;0.10;0.10;;;;;;;15.82;100.00;100760.97;10488515;28;20365;-74
2022/10/21 14:20:47;;;;;;;0.00;0.00;;;;;;;15.82;100.00;100766.34;10489570;28;20016;-75
2022/10/21 14:25:49;;;;;;;0.10;0.10;;;;;;;15.77;100.00;100760.72;10488841;28;20020;-75
2022/10/21 14:30:50;;;;;;;0.00;0.00;;;;;;;15.71;100.00;100764.19;10483442;28;20024;-75
2022/10/21 14:36:19;;;;;;;0.00;0.00;;;;;;;15.65;100.00;100770.31;10488736;28;20025;-75
2022/10/21 14:41:28;;;;;;;0.10;0.10;;;;;;;15.55;100.00;100765.25;10483875;28;20027;-75
2022/10/21 14:46:28;;;;;;;0.00;0.00;;;;;;;15.50;100.00;100766.84;10487713;28;20024;-74
2022/10/21 14:51:36;;;;;;;0.00;0.00;;;;;;;15.42;100.00;100764.28;10488179;28;20027;-75
2022/10/21 14:56:39;;;;;;;0.10;0.10;;;;;;;15.36;100.00;100757.84;10488846;28;20491;-76
2022/10/21 15:01:42;;;;;;;0.00;0.00;;;;;;;15.32;100.00;100751.19;10497042;28;20017;-75
2022/10/21 15:06:59;;;;;;;0.00;0.00;;;;;;;15.26;100.00;100752.78;10495598;28;20467;-75
2022/10/21 15:12:16;;;;;;;0.10;0.10;;;;;;;15.19;100.00;100757.28;10496957;28;20039;-76
2022/10/21 15:17:17;;;;;;;0.10;0.10;;;;;;;15.12;100.00;100759.03;10496945;28;20048;-75
2022/10/21 15:22:21;;;;;;;0.10;0.10;;;;;;;15.07;100.00;100765.00;10494439;28;20067;-75
2022/10/21 15:27:27;;;;;;;0.00;0.00;;;;;;;14.99;100.00;100758.91;10494009;28;20105;-74
2022/10/21 15:32:27;;;;;;;0.10;0.10;;;;;;;14.85;100.00;100756.06;10471408;28;20109;-75
2022/10/21 15:37:27;;;;;;;0.10;0.10;;;;;;;14.74;100.00;100748.53;10462097;28;20023;-75
2022/10/21 15:42:28;;;;;;;0.10;0.10;;;;;;;14.61;100.00;100743.84;10452508;28;20333;-75
2022/10/21 15:47:28;;;;;;;0.00;0.00;;;;;;;14.49;100.00;100754.19;10453516;28;20017;-75
2022/10/21 15:52:28;;;;;;;0.00;0.00;;;;;;;14.37;100.00;100753.00;10470086;28;20020;-75
2022/10/21 15:57:29;;;;;;;0.10;0.10;;;;;;;14.25;100.00;100757.13;10484038;28;20025;-75
2022/10/21 16:02:29;;;;;;;0.10;0.10;;;;;;;14.14;100.00;100762.97;10463096;28;20019;-75
2022/10/21 16:07:31;;;;;;;0.00;0.00;;;;;;;13.99;100.00;100768.28;10453850;28;20036;-76
2022/10/21 16:12:32;;;;;;;0.10;0.10;;;;;;;13.85;100.00;100761.09;10450307;28;20021;-75
2022/10/21 16:17:32;;;;;;;0.10;0.10;;;;;;;13.69;100.00;100760.22;10452610;28;20025;-75
2022/10/21 16:22:32;;;;;;;0.10;0.10;;;;;;;13.57;100.00;100751.78;10478296;28;20083;-75
2022/10/21 16:27:34;;;;;;;0.10;0.10;;;;;;;13.50;100.00;100758.06;10492780;28;20031;-76
2022/10/21 16:32:34;;;;;;;0.00;0.00;;;;;;;13.47;100.00;100761.09;10489767;28;20381;-75
2022/10/21 16:37:34;;;;;;;0.10;0.10;;;;;;;13.52;100.00;100748.81;10490107;28;20126;-75
2022/10/21 16:42:35;;;;;;;0.00;0.00;;;;;;;13.57;100.00;100745.59;10491367;28;20020;-74
2022/10/21 16:47:36;;;;;;;0.00;0.00;;;;;;;13.55;100.00;100761.81;10506686;28;20024;-75
2022/10/21 16:52:36;;;;;;;0.10;0.10;;;;;;;13.46;100.00;100760.22;10491043;28;20226;-75
2022/10/21 16:57:36;;;;;;;0.10;0.10;;;;;;;13.46;100.00;100760.22;10504700;28;20033;-75
2022/10/21 17:02:37;;;;;;;0.00;0.00;;;;;;;13.49;100.00;100764.41;10487246;28;20028;-74
2022/10/21 17:07:37;;;;;;;0.10;0.10;;;;;;;13.45;100.00;100768.47;10486458;28;20756;-74
2022/10/21 17:12:38;;;;;;;0.10;0.10;;;;;;;13.47;100.00;100777.16;10466271;28;20055;-74
2022/10/21 17:17:38;;;;;;;0.10;0.10;;;;;;;13.48;100.00;100779.63;10489482;28;20056;-74
2022/10/21 17:22:39;;;;;;;0.10;0.10;;;;;;;13.47;100.00;100777.97;10490094;28;20032;-74
2022/10/21 17:27:39;;;;;;;0.10;0.10;;;;;;;13.50;100.00;100779.47;10490158;28;20100;-74
2022/10/21 17:32:39;;;;;;;0.10;0.10;;;;;;;13.48;100.00;100782.31;10489073;28;20109;-74
2022/10/21 17:37:40;;;;;;;0.10;0.10;;;;;;;13.47;100.00;100788.69;10490668;28;20033;-74
2022/10/21 17:42:41;;;;;;;0.10;0.10;;;;;;;13.49;100.00;100796.50;10489020;28;20021;-74
2022/10/21 17:47:42;;;;;;;0.10;0.10;;;;;;;13.47;100.00;100802.06;10489802;28;20044;-75
2022/10/21 17:52:42;;;;;;;0.10;0.10;;;;;;;13.49;100.00;100796.50;10488627;28;20490;-75
2022/10/21 17:57:43;;;;;;;0.10;0.10;;;;;;;13.48;100.00;100803.72;10489340;28;20035;-75
2022/10/21 18:02:43;;;;;;;0.10;0.10;;;;;;;13.47;100.00;100796.69;10488603;28;20012;-75
2022/10/21 18:07:44;;;;;;;0.10;0.10;;;;;;;13.45;100.00;100793.38;10474584;28;20028;-76
2022/10/21 18:12:44;;;;;;;0.00;0.00;;;;;;;13.49;100.00;100797.34;10482019;28;20013;-75
2022/10/21 18:17:44;;;;;;;0.10;0.10;;;;;;;13.54;100.00;100794.13;10474338;28;20321;-75
2022/10/21 18:22:46;;;;;;;0.10;0.10;;;;;;;13.53;100.00;100795.16;10488720;28;20099;-75
2022/10/21 18:27:46;;;;;;;0.10;0.10;;;;;;;13.55;100.00;100793.13;10485822;28;20029;-75
2022/10/21 18:32:46;;;;;;;0.10;0.10;;;;;;;13.56;100.00;100787.59;10474628;28;20379;-75
2022/10/21 18:37:46;;;;;;;0.10;0.10;;;;;;;13.54;100.00;100788.78;10470384;28;20033;-75
2022/10/21 18:42:47;;;;;;;0.10;0.10;;;;;;;13.52;100.00;100791.63;10483249;28;20013;-75
2022/10/21 18:47:48;;;;;;;0.00;0.00;;;;;;;13.47;100.00;100794.03;10454547;28;20024;-76
2022/10/21 18:52:49;;;;;;;0.10;0.10;;;;;;;13.44;100.00;100805.09;10452490;28;20387;-75
2022/10/21 18:57:52;;;;;;;0.00;0.00;;;;;;;13.41;100.00;100800.09;10475627;28;20021;-75
2022/10/21 19:02:52;;;;;;;0.10;0.10;;;;;;;13.38;100.00;100811.16;10490642;28;20008;-75
2022/10/21 19:07:52;;;;;;;0.10;0.10;;;;;;;13.40;100.00;100814.47;10490525;28;20476;-75
2022/10/21 19:12:53;;;;;;;0.00;0.00;;;;;;;13.48;100.00;100832.31;10489423;28;20489;-75
2022/10/21 19:17:54;;;;;;;0.10;0.10;;;;;;;13.53;100.00;100820.06;10490410;28;20081;-75
2022/10/21 19:22:54;;;;;;;0.00;0.00;;;;;;;13.57;100.00;100829.38;10489155;28;20025;-74
2022/10/21 19:27:54;;;;;;;0.10;0.10;;;;;;;13.60;100.00;100836.22;10484901;28;20079;-75
2022/10/21 19:32:58;;;;;;;0.10;0.10;;;;;;;13.66;100.00;100842.72;10480931;28;20020;-75
2022/10/21 19:37:59;;;;;;;0.10;0.10;;;;;;;13.69;100.00;100848.53;10470539;28;20479;-75
2022/10/21 19:42:59;;;;;;;0.10;0.10;;;;;;;13.74;100.00;100859.56;10481377;28;20104;-75
2022/10/21 19:47:59;;;;;;;0.10;0.10;;;;;;;13.75;100.00;100852.34;10494595;28;20020;-75
2022/10/21 19:53:00;;;;;;;0.10;0.10;;;;;;;13.75;100.00;100865.72;10477555;28;20021;-75
2022/10/21 19:58:00;;;;;;;0.00;0.00;;;;;;;13.74;100.00;100862.22;10484240;28;20050;-75
2022/10/21 20:03:02;;;;;;;0.00;0.00;;;;;;;13.72;100.00;100868.78;10476946;28;20020;-75
2022/10/21 20:08:02;;;;;;;0.10;0.10;;;;;;;13.70;100.00;100876.13;10477397;28;20029;-75
2022/10/21 20:13:02;;;;;;;0.10;0.10;;;;;;;13.65;100.00;100870.50;10468245;28;20021;-75
2022/10/21 20:18:03;;;;;;;0.00;0.00;;;;;;;13.55;100.00;100871.53;10473812;28;20108;-75
2022/10/21 20:23:03;;;;;;;0.00;0.00;;;;;;;13.43;100.00;100878.31;10487489;28;20024;-75
2022/10/21 20:28:03;;;;;;;0.10;0.10;;;;;;;13.33;100.00;100870.53;10472135;28;20582;-75
2022/10/21 20:33:04;;;;;;;0.10;0.10;;;;;;;13.27;100.00;100878.44;10478404;28;20023;-75
2022/10/21 20:38:04;;;;;;;0.10;0.10;;;;;;;13.20;100.00;100867.53;10476189;28;20112;-75
2022/10/21 20:43:04;;;;;;;0.10;0.10;;;;;;;13.15;100.00;100875.28;10486010;28;20021;-75
2022/10/21 20:48:04;;;;;;;0.10;0.10;;;;;;;13.10;100.00;100874.97;10488823;28;20056;-75
2022/10/21 20:53:05;;;;;;;0.10;0.10;;;;;;;13.05;100.00;100874.66;10452671;28;20505;-75
2022/10/21 20:58:05;;;;;;;0.10;0.10;;;;;;;12.95;100.00;100880.22;10473234;28;20056;-75
2022/10/21 21:03:05;;;;;;;0.10;0.10;;;;;;;12.85;100.00;100874.22;10488126;28;20012;-75
2022/10/21 21:08:06;;;;;;;0.10;0.10;;;;;;;12.81;100.00;100871.06;10478226;28;20066;-75
2022/10/21 21:13:07;;;;;;;0.00;0.00;;;;;;;12.84;100.00;100872.56;10486598;28;20416;-75
2022/10/21 21:18:10;;;;;;;0.10;0.10;;;;;;;12.89;100.00;100863.03;10477817;28;20104;-75
2022/10/21 21:23:10;;;;;;;0.10;0.10;;;;;;;12.95;100.00;100864.19;10460891;28;20024;-75
2022/10/21 21:28:10;;;;;;;0.10;0.10;;;;;;;13.02;100.00;100859.78;10482398;28;20373;-75
2022/10/21 21:33:11;;;;;;;0.10;0.10;;;;;;;13.09;100.00;100858.09;10491203;28;20064;-75
2022/10/21 21:38:11;;;;;;;0.10;0.10;;;;;;;13.15;100.00;100851.22;10493211;28;20024;-75
2022/10/21 21:43:11;;;;;;;0.10;0.10;;;;;;;13.19;100.00;100863.22;10491787;28;20029;-75
2022/10/21 21:48:13;;;;;;;0.10;0.10;;;;;;;13.23;100.00;100863.69;10492438;28;20048;-75
2022/10/21 21:53:17;;;;;;;0.10;0.10;;;;;;;13.26;100.00;100866.03;10491522;28;20026;-75
2022/10/21 21:58:18;;;;;;;;;;;;;;;13.27;100.00;100876.59;10492138;28;20024;-75
2022/10/21 22:03:18;;;;;;;0.10;0.10;;;;;;;13.29;100.00;100873.72;10472416;28;20186;-75
2022/10/21 22:08:18;;;;;;;0.05;0.05;;;;;;;13.32;100.00;100876.91;10460942;28;20017;-75
2022/10/21 22:13:18;;;;;;;0.10;0.10;;;;;;;13.34;100.00;100879.38;10449311;28;20688;-75
2022/10/21 22:18:19;;;;;;;0.00;0.00;;;;;;;13.36;100.00;100882.72;10491789;28;20025;-75
2022/10/21 22:23:19;;;;;;;0.10;0.10;;;;;;;13.39;100.00;100886.91;10490926;28;20024;-75
2022/10/21 22:28:19;;;;;;;0.10;0.10;;;;;;;13.40;100.00;100893.91;10487561;28;20025;-75
2022/10/21 22:33:20;;;;;;;0.10;0.10;;;;;;;13.41;100.00;100896.41;10483539;28;20392;-75
2022/10/21 22:38:21;;;;;;;0.10;0.10;;;;;;;13.42;100.00;100891.91;10465990;28;20033;-75
2022/10/21 22:43:22;;;;;;;0.10;0.10;;;;;;;13.43;100.00;100893.53;10449155;28;20037;-75
2022/10/21 22:48:22;;;;;;;0.10;0.10;;;;;;;13.44;100.00;100889.84;10487657;28;20016;-75
2022/10/21 22:53:23;;;;;;;0.03;0.03;;;;;;;13.44;100.00;100895.19;10490171;28;20017;-75
2022/10/21 22:58:23;;;;;;;0.10;0.10;;;;;;;13.43;100.00;100888.19;10481741;28;20031;-75
2022/10/21 23:03:23;;;;;;;0.10;0.10;;;;;;;13.44;100.00;100884.50;10462909;28;20025;-75
2022/10/21 23:08:27;;;;;;;0.10;0.10;;;;;;;13.45;100.00;100891.53;10489885;28;20283;-75